createdAt,value
2018-10-21T00:00:54.598Z,8.90
2018-10-21T00:03:23.059Z,8.80
2018-10-21T00:05:51.533Z,8.80
2018-10-21T00:08:20.054Z,8.80
2018-10-21T00:10:48.540Z,8.60
2018-10-21T00:13:17.015Z,8.50
2018-10-21T00:15:45.622Z,8.50
2018-10-21T00:18:13.991Z,8.40
2018-10-21T00:20:42.459Z,8.40
2018-10-21T00:23:10.911Z,8.40
2018-10-21T00:25:39.433Z,8.30
2018-10-21T00:28:08.265Z,8.30
2018-10-21T00:30:36.978Z,8.20
2018-10-21T00:33:05.721Z,8.20
2018-10-21T00:35:34.148Z,8.30
2018-10-21T00:38:02.630Z,8.30
2018-10-21T00:40:31.122Z,8.30
2018-10-21T00:42:59.602Z,8.30
2018-10-21T00:45:28.102Z,8.30
2018-10-21T00:47:56.565Z,8.30
2018-10-21T00:50:25.006Z,8.30
2018-10-21T00:52:53.421Z,8.20
2018-10-21T00:55:21.846Z,8.20
2018-10-21T00:57:50.264Z,8.20
2018-10-21T01:00:18.679Z,8.10
2018-10-21T01:02:47.083Z,8.10
2018-10-21T01:05:15.593Z,8.10
2018-10-21T01:07:44.000Z,8.00
2018-10-21T01:10:12.679Z,7.90
2018-10-21T01:12:41.767Z,7.80
2018-10-21T01:15:11.561Z,7.80
2018-10-21T01:17:39.930Z,7.80
2018-10-21T01:20:10.488Z,7.80
2018-10-21T01:22:39.030Z,7.80
2018-10-21T01:25:08.279Z,7.70
2018-10-21T01:27:36.775Z,7.70
2018-10-21T01:30:06.493Z,7.70
2018-10-21T01:32:34.886Z,7.70
2018-10-21T01:35:03.349Z,7.70
2018-10-21T01:37:31.777Z,7.60
2018-10-21T01:40:32.602Z,7.50
2018-10-21T01:43:01.247Z,7.60
2018-10-21T01:45:29.697Z,7.60
2018-10-21T01:47:59.345Z,7.50
2018-10-21T01:50:27.819Z,7.50
2018-10-21T01:52:58.119Z,7.50
2018-10-21T01:55:26.787Z,7.50
2018-10-21T01:57:56.114Z,7.50
2018-10-21T02:00:25.281Z,7.40
2018-10-21T02:02:54.212Z,7.40
2018-10-21T02:05:22.852Z,7.40
2018-10-21T02:07:51.363Z,7.40
2018-10-21T02:10:19.951Z,7.40
2018-10-21T02:12:48.435Z,7.40
2018-10-21T02:15:16.883Z,7.30
2018-10-21T02:17:45.385Z,7.20
2018-10-21T02:20:14.711Z,7.30
2018-10-21T02:22:43.914Z,7.30
2018-10-21T02:25:12.385Z,7.20
2018-10-21T02:27:41.482Z,7.30
2018-10-21T02:30:16.095Z,7.30
2018-10-21T02:32:45.411Z,7.20
2018-10-21T02:35:14.492Z,7.10
2018-10-21T02:37:43.287Z,7.00
2018-10-21T02:41:23.964Z,6.90
2018-10-21T02:43:53.290Z,6.80
2018-10-21T02:46:22.853Z,6.80
2018-10-21T02:48:52.942Z,6.80
2018-10-21T02:51:21.473Z,6.70
2018-10-21T02:53:49.934Z,6.70
2018-10-21T02:56:18.412Z,6.80
2018-10-21T02:58:46.921Z,6.60
2018-10-21T03:01:15.409Z,6.50
2018-10-21T03:03:43.916Z,6.50
2018-10-21T03:06:12.374Z,6.50
2018-10-21T03:08:40.907Z,6.50
2018-10-21T03:11:09.409Z,6.40
2018-10-21T03:13:37.913Z,6.40
2018-10-21T03:16:06.483Z,6.30
2018-10-21T03:18:34.983Z,6.40
2018-10-21T03:21:04.405Z,6.40
2018-10-21T03:23:33.375Z,6.30
2018-10-21T03:26:02.133Z,6.40
2018-10-21T03:28:30.947Z,6.30
2018-10-21T03:30:59.504Z,6.50
2018-10-21T03:33:28.119Z,6.40
2018-10-21T03:35:56.477Z,6.30
2018-10-21T03:38:24.981Z,6.20
2018-10-21T03:40:53.469Z,6.10
2018-10-21T03:43:21.933Z,6.10
2018-10-21T03:45:50.489Z,6.00
2018-10-21T03:48:19.012Z,6.00
2018-10-21T03:50:47.520Z,6.00
2018-10-21T03:53:15.970Z,6.00
2018-10-21T03:55:44.746Z,5.90
2018-10-21T03:58:13.398Z,5.90
2018-10-21T04:00:41.774Z,5.90
2018-10-21T04:03:10.237Z,5.90
2018-10-21T04:05:38.780Z,5.90
2018-10-21T04:08:07.249Z,5.80
2018-10-21T04:10:35.738Z,5.90
2018-10-21T04:13:04.304Z,5.80
2018-10-21T04:15:32.825Z,5.80
2018-10-21T04:18:01.310Z,5.80
2018-10-21T04:20:29.777Z,5.80
2018-10-21T04:22:59.425Z,5.70
2018-10-21T04:25:28.871Z,5.70
2018-10-21T04:27:58.438Z,5.70
2018-10-21T04:30:29.945Z,5.60
2018-10-21T04:33:08.350Z,5.60
2018-10-21T04:35:36.852Z,5.60
2018-10-21T04:38:33.539Z,5.60
2018-10-21T04:41:01.995Z,5.60
2018-10-21T04:43:30.467Z,5.70
2018-10-21T04:45:58.961Z,5.70
2018-10-21T04:48:27.451Z,5.70
2018-10-21T04:50:55.906Z,5.80
2018-10-21T04:53:24.387Z,5.80
2018-10-21T04:55:52.916Z,5.80
2018-10-21T04:58:21.391Z,5.90
2018-10-21T05:00:49.996Z,5.90
2018-10-21T05:03:18.365Z,5.80
2018-10-21T05:05:46.807Z,5.80
2018-10-21T05:08:15.262Z,5.70
2018-10-21T05:10:43.711Z,5.70
2018-10-21T05:13:12.194Z,5.70
2018-10-21T05:15:40.833Z,5.80
2018-10-21T05:18:09.293Z,5.80
2018-10-21T05:20:37.743Z,5.90
2018-10-21T05:23:06.222Z,5.90
2018-10-21T05:25:34.685Z,6.10
2018-10-21T05:28:03.186Z,6.00
2018-10-21T05:30:31.685Z,6.00
2018-10-21T05:33:00.162Z,6.20
2018-10-21T05:35:28.625Z,6.20
2018-10-21T05:37:57.154Z,6.30
2018-10-21T05:40:25.601Z,6.30
2018-10-21T05:42:54.054Z,6.30
2018-10-21T05:45:22.512Z,6.40
2018-10-21T05:47:51.016Z,6.50
2018-10-21T05:50:19.461Z,6.50
2018-10-21T05:52:47.892Z,6.50
2018-10-21T05:55:16.617Z,6.50
2018-10-21T05:57:45.042Z,6.50
2018-10-21T06:00:15.777Z,6.70
2018-10-21T06:02:44.212Z,6.60
2018-10-21T06:05:48.212Z,6.40
2018-10-21T06:08:16.712Z,6.40
2018-10-21T06:10:45.498Z,6.40
2018-10-21T06:13:14.181Z,6.40
2018-10-21T06:15:42.679Z,6.40
2018-10-21T06:18:14.590Z,6.30
2018-10-21T06:20:45.618Z,6.30
2018-10-21T06:23:14.046Z,6.30
2018-10-21T06:25:42.464Z,6.30
2018-10-21T06:28:10.877Z,6.30
2018-10-21T06:30:39.292Z,6.30
2018-10-21T06:33:07.765Z,6.30
2018-10-21T06:35:36.137Z,6.30
2018-10-21T06:38:04.853Z,6.30
2018-10-21T06:40:33.285Z,6.30
2018-10-21T06:43:01.750Z,6.30
2018-10-21T06:45:30.219Z,6.40
2018-10-21T06:47:58.705Z,6.40
2018-10-21T06:50:27.159Z,6.40
2018-10-21T06:52:55.594Z,6.20
2018-10-21T06:55:24.013Z,6.30
2018-10-21T06:57:52.431Z,6.30
2018-10-21T07:00:20.865Z,6.30
2018-10-21T07:02:49.313Z,6.40
2018-10-21T07:05:29.179Z,6.30
2018-10-21T07:07:57.589Z,6.60
2018-10-21T07:10:26.043Z,6.80
2018-10-21T07:12:54.464Z,6.80
2018-10-21T07:15:22.964Z,6.90
2018-10-21T07:17:51.317Z,7.00
2018-10-21T07:20:19.746Z,7.10
2018-10-21T07:22:48.169Z,7.20
2018-10-21T07:25:16.595Z,7.30
2018-10-21T07:27:45.001Z,7.30
2018-10-21T07:30:14.009Z,7.50
2018-10-21T07:32:43.300Z,7.50
2018-10-21T07:35:13.327Z,7.60
2018-10-21T07:37:42.605Z,7.60
2018-10-21T07:40:11.972Z,7.80
2018-10-21T07:42:40.378Z,7.80
2018-10-21T07:45:08.857Z,7.70
2018-10-21T07:47:37.291Z,7.70
2018-10-21T07:50:06.113Z,7.70
2018-10-21T07:52:34.562Z,7.80
2018-10-21T07:55:03.070Z,7.80
2018-10-21T07:57:32.125Z,7.90
2018-10-21T08:00:00.619Z,7.90
2018-10-21T08:02:29.093Z,7.90
2018-10-21T08:04:57.570Z,7.90
2018-10-21T08:07:37.281Z,8.10
2018-10-21T08:10:05.986Z,8.20
2018-10-21T08:12:34.408Z,8.20
2018-10-21T08:15:02.992Z,8.30
2018-10-21T08:17:31.408Z,8.30
2018-10-21T08:19:59.946Z,8.40
2018-10-21T08:22:28.402Z,8.50
2018-10-21T08:24:56.919Z,8.60
2018-10-21T08:27:25.535Z,8.80
2018-10-21T08:29:53.949Z,8.90
2018-10-21T08:32:22.622Z,9.00
2018-10-21T08:34:51.244Z,9.10
2018-10-21T08:37:19.738Z,9.30
2018-10-21T08:39:48.258Z,9.30
2018-10-21T08:42:16.738Z,9.20
2018-10-21T08:44:45.279Z,9.20
2018-10-21T08:47:13.822Z,9.30
2018-10-21T08:49:42.317Z,9.50
2018-10-21T08:52:10.834Z,9.50
2018-10-21T08:54:39.232Z,9.50
2018-10-21T08:57:07.790Z,9.60
2018-10-21T08:59:36.268Z,9.60
2018-10-21T09:02:04.788Z,9.60
2018-10-21T09:04:33.335Z,9.60
2018-10-21T09:07:01.871Z,9.70
2018-10-21T09:09:30.273Z,9.70
2018-10-21T09:11:58.798Z,9.90
2018-10-21T09:14:27.216Z,10.00
2018-10-21T09:16:55.708Z,10.20
2018-10-21T09:19:24.192Z,10.30
2018-10-21T09:21:52.661Z,10.40
2018-10-21T09:24:21.121Z,10.50
2018-10-21T09:26:49.608Z,10.70
2018-10-21T09:29:18.068Z,10.80
2018-10-21T09:31:46.571Z,11.00
2018-10-21T09:34:15.057Z,11.10
2018-10-21T09:36:43.560Z,11.30
2018-10-21T09:39:14.295Z,11.30
2018-10-21T09:41:43.524Z,11.30
2018-10-21T09:44:12.383Z,11.30
2018-10-21T09:46:41.777Z,11.30
2018-10-21T09:49:11.014Z,11.50
2018-10-21T09:51:39.603Z,11.80
2018-10-21T09:54:08.154Z,11.90
2018-10-21T09:56:37.289Z,12.10
2018-10-21T09:59:06.041Z,12.20
2018-10-21T10:01:39.961Z,12.10
2018-10-21T10:04:08.683Z,12.10
2018-10-21T10:06:37.200Z,12.30
2018-10-21T10:09:08.290Z,12.30
2018-10-21T10:11:36.797Z,12.20
2018-10-21T10:14:05.595Z,12.20
2018-10-21T10:16:34.059Z,12.20
2018-10-21T10:19:02.581Z,12.20
2018-10-21T10:21:31.090Z,12.50
2018-10-21T10:23:59.585Z,12.60
2018-10-21T10:26:28.117Z,12.50
2018-10-21T10:28:56.583Z,12.60
2018-10-21T10:31:25.114Z,12.80
2018-10-21T10:33:53.601Z,12.90
2018-10-21T10:36:22.227Z,13.10
2018-10-21T10:38:50.651Z,13.10
2018-10-21T10:41:19.227Z,13.30
2018-10-21T10:43:47.663Z,13.40
2018-10-21T10:46:16.219Z,13.40
2018-10-21T10:48:44.616Z,13.40
2018-10-21T10:51:13.044Z,13.60
2018-10-21T10:53:41.464Z,13.60
2018-10-21T10:56:09.883Z,13.70
2018-10-21T10:58:38.277Z,13.60
2018-10-21T11:01:06.732Z,13.80
2018-10-21T11:03:35.111Z,13.90
2018-10-21T11:06:03.518Z,13.90
2018-10-21T11:08:32.174Z,14.00
2018-10-21T11:11:00.604Z,14.00
2018-10-21T11:13:29.050Z,14.00
2018-10-21T11:15:57.504Z,14.10
2018-10-21T11:18:25.989Z,14.10
2018-10-21T11:20:54.433Z,14.00
2018-10-21T11:23:22.847Z,14.30
2018-10-21T11:25:51.332Z,14.40
2018-10-21T11:28:19.815Z,14.50
2018-10-21T11:30:48.195Z,14.50
2018-10-21T11:33:16.624Z,14.50
2018-10-21T11:35:45.017Z,14.70
2018-10-21T11:38:13.406Z,14.70
2018-10-21T11:40:42.007Z,14.70
2018-10-21T11:43:10.498Z,14.70
2018-10-21T11:45:39.902Z,14.80
2018-10-21T11:48:08.271Z,14.80
2018-10-21T11:50:36.759Z,14.80
2018-10-21T11:53:05.362Z,14.90
2018-10-21T11:55:41.232Z,15.00
2018-10-21T11:58:13.102Z,15.00
2018-10-21T12:00:42.131Z,15.00
2018-10-21T12:03:11.372Z,15.10
2018-10-21T12:05:40.423Z,15.20
2018-10-21T12:08:08.890Z,14.90
2018-10-21T12:10:37.307Z,15.00
2018-10-21T12:13:06.065Z,15.00
2018-10-21T12:15:35.048Z,15.00
2018-10-21T12:18:03.519Z,15.20
2018-10-21T12:20:31.951Z,15.20
2018-10-21T12:23:00.491Z,15.30
2018-10-21T12:25:28.899Z,15.40
2018-10-21T12:27:57.405Z,15.40
2018-10-21T12:30:25.795Z,15.00
2018-10-21T12:32:54.216Z,15.20
2018-10-21T12:35:22.649Z,15.30
2018-10-21T12:37:51.096Z,15.30
2018-10-21T12:40:19.651Z,15.30
2018-10-21T12:42:48.009Z,15.50
2018-10-21T12:45:16.433Z,15.60
2018-10-21T12:47:44.925Z,15.50
2018-10-21T12:50:13.347Z,15.60
2018-10-21T12:52:41.756Z,15.60
2018-10-21T12:55:10.329Z,15.70
2018-10-21T12:57:38.819Z,15.90
2018-10-21T13:00:08.155Z,15.70
2018-10-21T13:02:36.587Z,15.70
2018-10-21T13:05:05.710Z,15.70
2018-10-21T13:07:34.105Z,15.60
2018-10-21T13:10:02.498Z,15.70
2018-10-21T13:12:30.903Z,15.70
2018-10-21T13:14:59.303Z,15.90
2018-10-21T13:17:27.725Z,15.90
2018-10-21T13:19:56.143Z,15.80
2018-10-21T13:22:24.568Z,15.90
2018-10-21T13:24:52.975Z,15.80
2018-10-21T13:27:21.369Z,15.80
2018-10-21T13:29:49.756Z,15.80
2018-10-21T13:32:18.187Z,15.90
2018-10-21T13:34:46.631Z,15.90
2018-10-21T13:37:15.048Z,15.80
2018-10-21T13:39:43.391Z,15.80
2018-10-21T13:42:11.779Z,15.70
2018-10-21T13:44:40.154Z,15.80
2018-10-21T13:47:08.555Z,16.00
2018-10-21T13:49:36.955Z,16.00
2018-10-21T13:52:05.789Z,15.90
2018-10-21T13:54:34.030Z,16.00
2018-10-21T13:57:02.657Z,16.00
2018-10-21T13:59:31.363Z,16.00
2018-10-21T14:01:59.759Z,16.00
2018-10-21T14:04:28.131Z,16.00
2018-10-21T14:06:56.618Z,15.90
2018-10-21T14:09:24.935Z,16.00
2018-10-21T14:11:53.351Z,16.00
2018-10-21T14:14:21.769Z,16.10
2018-10-21T14:16:50.219Z,16.00
2018-10-21T14:19:18.611Z,15.90
2018-10-21T14:21:47.032Z,16.00
2018-10-21T14:24:15.532Z,16.00
2018-10-21T14:26:43.860Z,16.00
2018-10-21T14:29:12.286Z,16.00
2018-10-21T14:31:40.709Z,16.00
2018-10-21T14:34:09.091Z,16.00
2018-10-21T14:36:37.476Z,15.90
2018-10-21T14:39:09.204Z,15.80
2018-10-21T14:41:37.899Z,15.90
2018-10-21T14:44:06.279Z,15.90
2018-10-21T14:46:35.202Z,15.90
2018-10-21T14:49:03.674Z,15.90
2018-10-21T14:51:32.107Z,15.90
2018-10-21T14:54:00.581Z,15.80
2018-10-21T14:56:29.012Z,15.90
2018-10-21T14:58:57.449Z,15.90
2018-10-21T15:01:25.923Z,15.90
2018-10-21T15:03:54.442Z,15.80
2018-10-21T15:06:22.890Z,15.80
2018-10-21T15:08:51.351Z,15.70
2018-10-21T15:11:19.800Z,15.70
2018-10-21T15:13:48.299Z,15.70
2018-10-21T15:16:16.723Z,15.60
2018-10-21T15:18:45.187Z,15.70
2018-10-21T15:21:13.635Z,15.60
2018-10-21T15:23:42.083Z,15.70
2018-10-21T15:26:10.528Z,15.70
2018-10-21T15:28:38.978Z,15.60
2018-10-21T15:31:07.414Z,15.50
2018-10-21T15:33:35.866Z,15.50
2018-10-21T15:36:04.378Z,15.40
2018-10-21T15:38:32.848Z,15.40
2018-10-21T15:41:01.295Z,15.40
2018-10-21T15:43:29.731Z,15.30
2018-10-21T15:45:58.147Z,15.30
2018-10-21T15:48:26.635Z,15.30
2018-10-21T15:50:55.052Z,15.20
2018-10-21T15:53:23.506Z,15.20
2018-10-21T15:55:51.948Z,15.20
2018-10-21T15:58:20.388Z,15.00
2018-10-21T16:00:48.815Z,15.00
2018-10-21T16:03:17.404Z,15.10
2018-10-21T16:05:45.854Z,15.00
2018-10-21T16:08:14.333Z,14.90
2018-10-21T16:10:42.776Z,14.80
2018-10-21T16:13:11.570Z,14.80
2018-10-21T16:15:40.082Z,14.70
2018-10-21T16:18:08.492Z,14.70
2018-10-21T16:20:36.955Z,14.70
2018-10-21T16:23:05.510Z,14.60
2018-10-21T16:25:34.109Z,14.50
2018-10-21T16:28:02.713Z,14.40
2018-10-21T16:30:31.075Z,14.40
2018-10-21T16:32:59.564Z,14.30
2018-10-21T16:35:27.999Z,14.10
2018-10-21T16:37:56.419Z,14.00
2018-10-21T16:40:24.862Z,14.00
2018-10-21T16:42:53.287Z,14.00
2018-10-21T16:45:21.751Z,13.90
2018-10-21T16:47:50.175Z,13.80
2018-10-21T16:50:18.583Z,13.70
2018-10-21T16:52:47.452Z,13.50
2018-10-21T16:55:16.668Z,13.40
2018-10-21T16:57:45.205Z,13.30
2018-10-21T17:00:17.247Z,13.20
2018-10-21T17:02:45.558Z,13.10
2018-10-21T17:05:14.040Z,13.10
2018-10-21T17:07:42.419Z,13.00
2018-10-21T17:10:11.649Z,12.90
2018-10-21T17:12:39.931Z,12.90
2018-10-21T17:15:09.639Z,12.80
2018-10-21T17:17:38.653Z,12.90
2018-10-21T17:20:09.976Z,12.80
2018-10-21T17:22:38.811Z,12.70
2018-10-21T17:25:07.556Z,12.70
2018-10-21T17:27:36.009Z,12.80
2018-10-21T17:30:05.704Z,12.60
2018-10-21T17:32:34.183Z,12.60
2018-10-21T17:35:02.627Z,12.50
2018-10-21T17:37:31.118Z,12.50
2018-10-21T17:39:59.611Z,12.30
2018-10-21T17:42:28.027Z,12.20
2018-10-21T17:44:56.477Z,12.20
2018-10-21T17:47:24.939Z,12.20
2018-10-21T17:49:53.422Z,12.10
2018-10-21T17:52:22.059Z,12.10
2018-10-21T17:54:50.487Z,12.00
2018-10-21T17:57:19.141Z,11.90
2018-10-21T17:59:47.663Z,11.90
2018-10-21T18:02:16.122Z,11.80
2018-10-21T18:04:44.567Z,11.70
2018-10-21T18:07:13.123Z,11.70
2018-10-21T18:09:41.515Z,11.70
2018-10-21T18:12:09.980Z,11.70
2018-10-21T18:14:38.423Z,11.70
2018-10-21T18:17:06.871Z,11.60
2018-10-21T18:19:35.299Z,11.50
2018-10-21T18:22:03.818Z,11.50
2018-10-21T18:24:32.239Z,11.40
2018-10-21T18:27:00.690Z,11.40
2018-10-21T18:29:29.161Z,11.40
2018-10-21T18:31:57.599Z,11.40
2018-10-21T18:34:26.031Z,11.30
2018-10-21T18:36:54.563Z,11.30
2018-10-21T18:39:23.073Z,11.20
2018-10-21T18:41:51.544Z,11.20
2018-10-21T18:44:19.988Z,11.30
2018-10-21T18:46:48.444Z,11.20
2018-10-21T18:49:16.937Z,11.20
2018-10-21T18:51:45.339Z,11.10
2018-10-21T18:54:13.919Z,11.10
2018-10-21T18:56:42.442Z,11.00
2018-10-21T18:59:10.931Z,11.00
2018-10-21T19:01:39.427Z,10.90
2018-10-21T19:04:08.028Z,10.90
2018-10-21T19:06:36.486Z,10.80
2018-10-21T19:09:09.090Z,10.70
2018-10-21T19:11:37.696Z,10.70
2018-10-21T19:14:06.495Z,10.60
2018-10-21T19:16:35.041Z,10.60
2018-10-21T19:19:03.715Z,10.60
2018-10-21T19:21:32.197Z,10.50
2018-10-21T19:24:00.697Z,10.50
2018-10-21T19:26:29.271Z,10.40
2018-10-21T19:28:57.844Z,10.40
2018-10-21T19:31:26.358Z,10.30
2018-10-21T19:33:54.947Z,10.10
2018-10-21T19:36:23.406Z,10.00
2018-10-21T19:38:51.881Z,10.00
2018-10-21T19:41:20.430Z,9.80
2018-10-21T19:43:48.918Z,9.70
2018-10-21T19:46:17.433Z,9.60
2018-10-21T19:48:45.941Z,9.60
2018-10-21T19:51:14.563Z,9.50
2018-10-21T19:53:43.107Z,9.50
2018-10-21T19:56:11.638Z,9.50
2018-10-21T19:58:40.193Z,9.50
2018-10-21T20:01:08.805Z,9.40
2018-10-21T20:03:37.199Z,9.40
2018-10-21T20:06:05.824Z,9.40
2018-10-21T20:08:34.300Z,9.40
2018-10-21T20:11:02.795Z,9.40
2018-10-21T20:13:31.263Z,9.30
2018-10-21T20:15:59.763Z,9.30
2018-10-21T20:18:28.245Z,9.30
2018-10-21T20:20:56.715Z,9.20
2018-10-21T20:23:25.251Z,9.10
2018-10-21T20:25:53.735Z,9.00
2018-10-21T20:28:22.212Z,9.00
2018-10-21T20:30:50.754Z,9.00
2018-10-21T20:33:19.278Z,8.80
2018-10-21T20:35:47.746Z,8.80
2018-10-21T20:38:16.230Z,8.70
2018-10-21T20:40:44.621Z,8.70
2018-10-21T20:43:13.091Z,8.60
2018-10-21T20:45:41.563Z,8.60
2018-10-21T20:48:10.107Z,8.50
2018-10-21T20:50:38.524Z,8.50
2018-10-21T20:53:06.958Z,8.50
2018-10-21T20:55:35.424Z,8.50
2018-10-21T20:58:03.913Z,8.50
2018-10-21T21:00:32.308Z,8.50
2018-10-21T21:03:00.758Z,8.40
2018-10-21T21:05:29.200Z,8.30
2018-10-21T21:07:57.673Z,8.30
2018-10-21T21:10:26.115Z,8.20
2018-10-21T21:12:54.560Z,8.20
2018-10-21T21:15:23.030Z,8.10
2018-10-21T21:17:51.465Z,8.10
2018-10-21T21:20:19.943Z,8.10
2018-10-21T21:22:48.419Z,8.10
2018-10-21T21:25:16.938Z,8.10
2018-10-21T21:27:45.439Z,8.10
2018-10-21T21:30:13.961Z,8.10
2018-10-21T21:32:42.365Z,8.20
2018-10-21T21:35:10.814Z,8.30
2018-10-21T21:37:39.500Z,8.30
2018-10-21T21:40:09.054Z,8.40
2018-10-21T21:42:37.594Z,8.40
2018-10-21T21:45:06.380Z,8.40
2018-10-21T21:47:34.824Z,8.50
2018-10-21T21:50:03.305Z,8.40
2018-10-21T21:52:31.709Z,8.40
2018-10-21T21:55:00.072Z,8.40
2018-10-21T21:57:28.459Z,8.40
2018-10-21T21:59:56.818Z,8.40
2018-10-21T22:02:25.226Z,8.30
2018-10-21T22:04:53.609Z,8.20
2018-10-21T22:07:22.000Z,8.10
2018-10-21T22:09:50.486Z,8.00
2018-10-21T22:12:18.977Z,7.90
2018-10-21T22:14:47.279Z,7.80
2018-10-21T22:17:15.688Z,7.70
2018-10-21T22:19:44.071Z,7.70
2018-10-21T22:22:12.533Z,7.60
2018-10-21T22:24:40.927Z,7.60
2018-10-21T22:27:09.327Z,7.60
2018-10-21T22:29:37.694Z,7.60
2018-10-21T22:32:06.172Z,7.80
2018-10-21T22:34:34.669Z,7.90
2018-10-21T22:37:03.158Z,7.90
2018-10-21T22:39:31.690Z,7.90
2018-10-21T22:42:00.200Z,7.80
2018-10-21T22:44:28.689Z,7.90
2018-10-21T22:46:57.161Z,7.90
2018-10-21T22:49:25.664Z,8.00
2018-10-21T22:51:54.129Z,7.90
2018-10-21T22:54:22.518Z,7.80
2018-10-21T22:56:50.970Z,7.70
2018-10-21T22:59:19.387Z,7.50
2018-10-21T23:01:47.862Z,7.30
2018-10-21T23:04:16.349Z,7.40
2018-10-21T23:06:44.714Z,7.30
2018-10-21T23:09:13.294Z,7.20
2018-10-21T23:11:42.241Z,7.30
2018-10-21T23:14:10.826Z,7.50
2018-10-21T23:16:39.263Z,7.50
2018-10-21T23:19:19.031Z,7.50
2018-10-21T23:21:47.465Z,7.60
2018-10-21T23:24:15.907Z,7.60
2018-10-21T23:26:44.280Z,7.60
2018-10-21T23:29:12.813Z,7.70
2018-10-21T23:31:41.389Z,7.50
2018-10-21T23:34:09.890Z,7.60
2018-10-21T23:36:38.250Z,7.50
2018-10-21T23:39:07.274Z,7.40
2018-10-21T23:41:35.676Z,7.50
2018-10-21T23:44:04.193Z,7.50
2018-10-21T23:46:32.627Z,7.50
2018-10-21T23:49:01.070Z,7.50
2018-10-21T23:51:29.507Z,7.50
2018-10-21T23:53:57.968Z,7.40
2018-10-21T23:56:26.400Z,7.40
2018-10-21T23:58:54.810Z,7.30
